createdAt,value
2023-05-11T00:01:50.341Z,6.70
2023-05-11T00:05:51.987Z,6.77
2023-05-11T00:09:54.728Z,6.40
2023-05-11T00:13:55.559Z,6.50
2023-05-11T00:17:55.968Z,6.43
2023-05-11T00:21:56.144Z,6.43
2023-05-11T00:25:59.919Z,6.10
2023-05-11T00:30:00.368Z,5.73
2023-05-11T00:34:00.775Z,6.03
2023-05-11T00:38:01.129Z,6.60
2023-05-11T00:42:03.999Z,6.50
2023-05-11T00:46:05.548Z,6.40
2023-05-11T00:50:06.070Z,6.60
2023-05-11T00:54:13.213Z,6.33
2023-05-11T00:58:17.311Z,6.00
2023-05-11T01:02:17.727Z,6.40
2023-05-11T01:06:30.556Z,6.30
2023-05-11T01:10:45.129Z,5.90
2023-05-11T01:14:57.971Z,7.33
2023-05-11T01:19:08.309Z,6.60
2023-05-11T01:23:52.286Z,7.10
2023-05-11T01:28:18.396Z,6.97
2023-05-11T01:32:27.117Z,6.73
2023-05-11T01:36:35.444Z,6.00
2023-05-11T01:40:39.840Z,5.80
2023-05-11T01:44:45.660Z,6.10
2023-05-11T01:48:53.598Z,6.07
2023-05-11T01:52:55.902Z,5.90
2023-05-11T01:56:57.228Z,5.87
2023-05-11T02:01:00.398Z,5.80
2023-05-11T02:05:06.050Z,5.73
2023-05-11T02:09:07.304Z,5.87
2023-05-11T02:13:11.377Z,5.73
2023-05-11T02:17:13.636Z,6.00
2023-05-11T02:21:20.273Z,5.87
2023-05-11T02:25:21.706Z,5.93
2023-05-11T02:29:22.412Z,5.77
2023-05-11T02:33:28.698Z,5.37
2023-05-11T02:37:35.882Z,5.23
2023-05-11T02:41:42.326Z,5.93
2023-05-11T02:45:47.758Z,5.37
2023-05-11T02:49:54.545Z,5.87
2023-05-11T02:54:01.936Z,5.33
2023-05-11T02:58:06.807Z,5.70
2023-05-11T03:02:08.945Z,6.20
2023-05-11T03:06:09.733Z,5.73
2023-05-11T03:10:14.077Z,6.03
2023-05-11T03:14:17.422Z,5.80
2023-05-11T03:18:21.625Z,5.87
2023-05-11T03:22:23.815Z,5.93
2023-05-11T03:26:30.880Z,6.00
2023-05-11T03:30:36.081Z,6.60
2023-05-11T03:34:36.645Z,6.70
2023-05-11T03:38:39.597Z,6.47
2023-05-11T03:42:47.807Z,6.60
2023-05-11T03:46:50.776Z,7.07
2023-05-11T03:50:53.112Z,6.80
2023-05-11T03:54:53.673Z,6.63
2023-05-11T03:58:57.071Z,6.90
2023-05-11T04:02:59.099Z,7.33
2023-05-11T04:06:59.543Z,7.00
2023-05-11T04:11:00.294Z,6.77
2023-05-11T04:15:04.753Z,6.37
2023-05-11T04:19:06.690Z,7.10
2023-05-11T04:23:10.331Z,7.37
2023-05-11T04:27:10.732Z,7.43
2023-05-11T04:31:14.197Z,7.20
2023-05-11T04:35:14.977Z,6.77
2023-05-11T04:39:16.237Z,7.00
2023-05-11T04:43:16.963Z,7.40
2023-05-11T04:47:20.442Z,7.20
2023-05-11T04:51:21.188Z,7.17
2023-05-11T04:55:22.826Z,6.93
2023-05-11T04:59:24.686Z,7.00
2023-05-11T05:03:27.676Z,7.77
2023-05-11T05:07:28.713Z,7.13
2023-05-11T05:11:29.701Z,7.73
2023-05-11T05:15:30.630Z,7.10
2023-05-11T05:19:34.576Z,7.37
2023-05-11T05:23:35.228Z,7.63
2023-05-11T05:27:35.719Z,7.40
2023-05-11T05:31:40.666Z,6.73
2023-05-11T05:35:44.079Z,7.40
2023-05-11T05:39:47.688Z,6.80
2023-05-11T05:43:49.189Z,6.33
2023-05-11T05:47:51.931Z,6.90
2023-05-11T05:51:56.033Z,6.83
2023-05-11T05:55:56.658Z,6.70
2023-05-11T05:59:59.008Z,6.33
2023-05-11T06:03:59.475Z,6.50
2023-05-11T06:12:11.162Z,5.27
2023-05-11T06:16:16.687Z,5.30
2023-05-11T06:20:17.379Z,5.00
2023-05-11T06:24:20.817Z,4.83
2023-05-11T06:28:24.514Z,4.60
2023-05-11T06:32:27.673Z,4.73
2023-05-11T06:36:28.946Z,4.37
2023-05-11T06:40:31.872Z,4.67
2023-05-11T06:44:32.225Z,4.73
2023-05-11T06:48:32.937Z,5.07
2023-05-11T06:52:33.652Z,4.33
2023-05-11T06:56:39.638Z,5.77
2023-05-11T07:00:40.058Z,4.00
2023-05-11T07:04:40.373Z,4.00
2023-05-11T07:08:40.666Z,4.30
2023-05-11T07:12:43.838Z,4.10
2023-05-11T07:16:44.270Z,5.20
2023-05-11T07:20:47.099Z,4.10
2023-05-11T07:24:47.698Z,3.80
2023-05-11T07:28:50.752Z,4.20
2023-05-11T07:32:51.211Z,4.07
2023-05-11T07:36:51.451Z,4.20
2023-05-11T07:40:51.677Z,3.73
2023-05-11T07:44:54.824Z,3.63
2023-05-11T07:49:03.470Z,4.00
2023-05-11T07:53:14.583Z,3.97
2023-05-11T07:57:14.746Z,3.80
2023-05-11T08:01:17.759Z,4.27
2023-05-11T08:05:18.308Z,3.77
2023-05-11T08:09:18.822Z,3.90
2023-05-11T08:13:19.099Z,4.43
2023-05-11T08:17:21.931Z,3.07
2023-05-11T08:21:22.266Z,2.73
2023-05-11T08:25:22.685Z,3.00
2023-05-11T08:29:22.920Z,2.80
2023-05-11T08:37:30.878Z,3.47
2023-05-11T08:41:31.191Z,3.30
2023-05-11T08:45:34.820Z,2.80
2023-05-11T08:49:38.913Z,3.90
2023-05-11T08:53:39.221Z,3.40
2023-05-11T08:57:41.356Z,4.20
2023-05-11T09:01:44.748Z,2.80
2023-05-11T09:05:50.565Z,3.47
2023-05-11T09:09:51.525Z,3.13
2023-05-11T09:13:52.333Z,3.60
2023-05-11T09:17:52.693Z,3.60
2023-05-11T09:21:56.131Z,3.30
2023-05-11T09:25:56.823Z,3.30
2023-05-11T09:29:57.599Z,3.50
2023-05-11T09:34:14.182Z,2.80
2023-05-11T09:38:19.347Z,3.00
2023-05-11T09:42:21.936Z,3.50
2023-05-11T09:46:24.833Z,2.67
2023-05-11T09:50:26.477Z,2.38
2023-05-11T09:54:29.593Z,2.30
2023-05-11T09:58:29.790Z,2.00
2023-05-11T10:02:34.605Z,1.90
2023-05-11T10:06:51.323Z,1.90
2023-05-11T10:10:54.330Z,1.90
2023-05-11T10:14:58.027Z,1.67
2023-05-11T10:19:00.108Z,1.90
2023-05-11T10:23:00.360Z,2.00
2023-05-11T10:27:04.659Z,1.80
2023-05-11T10:31:07.853Z,2.20
2023-05-11T10:35:10.590Z,1.90
2023-05-11T10:39:10.889Z,1.90
2023-05-11T10:43:52.582Z,1.67
2023-05-11T10:48:27.912Z,1.70
2023-05-11T10:53:00.028Z,1.90
2023-05-11T10:57:36.550Z,1.60
2023-05-11T11:01:49.447Z,1.60
2023-05-11T11:05:49.883Z,1.50
2023-05-11T11:10:00.568Z,1.50
2023-05-11T11:14:04.735Z,1.67
2023-05-11T11:18:26.538Z,1.58
2023-05-11T11:22:52.454Z,1.50
2023-05-11T11:26:53.232Z,1.40
2023-05-11T11:31:29.676Z,1.50
2023-05-11T11:35:50.706Z,1.60
2023-05-11T11:40:13.249Z,1.87
2023-05-11T11:44:25.386Z,2.20
2023-05-11T11:48:33.756Z,2.20
2023-05-11T11:52:39.470Z,2.20
2023-05-11T11:56:47.112Z,2.23
2023-05-11T12:00:51.480Z,2.50
2023-05-11T12:05:00.100Z,2.45
2023-05-11T12:09:04.046Z,2.20
2023-05-11T12:13:05.150Z,1.70
2023-05-11T12:17:15.594Z,1.77
2023-05-11T12:21:23.709Z,1.92
2023-05-11T12:25:26.506Z,1.30
2023-05-11T12:29:27.064Z,1.10
2023-05-11T12:33:27.514Z,1.80
2023-05-11T12:37:28.196Z,1.40
2023-05-11T12:41:30.994Z,1.37
2023-05-11T12:45:32.404Z,1.30
2023-05-11T12:49:34.209Z,1.10
2023-05-11T12:53:39.141Z,1.10
2023-05-11T12:57:43.847Z,1.20
2023-05-11T13:01:44.490Z,1.60
2023-05-11T13:05:44.751Z,1.43
2023-05-11T13:09:45.539Z,1.60
2023-05-11T13:13:48.432Z,1.52
2023-05-11T13:17:59.153Z,1.80
2023-05-11T13:22:01.680Z,1.90
2023-05-11T13:26:02.198Z,6.07
2023-05-11T13:30:08.633Z,7.43
2023-05-11T13:34:09.501Z,5.23
2023-05-11T13:38:11.842Z,4.37
2023-05-11T13:42:12.142Z,1.60
2023-05-11T13:46:15.653Z,2.40
2023-05-11T13:50:16.471Z,2.80
2023-05-11T13:54:16.848Z,3.40
2023-05-11T13:58:18.031Z,2.40
2023-05-11T14:02:20.888Z,2.20
2023-05-11T14:06:21.212Z,1.70
2023-05-11T14:10:22.681Z,2.10
2023-05-11T14:14:23.078Z,2.27
2023-05-11T14:18:31.197Z,2.03
2023-05-11T14:22:31.617Z,2.43
2023-05-11T14:26:31.812Z,2.20
2023-05-11T14:30:32.051Z,2.20
2023-05-11T14:34:35.030Z,2.13
2023-05-11T14:38:35.267Z,2.60
2023-05-11T14:42:35.574Z,2.77
2023-05-11T14:46:36.335Z,3.30
2023-05-11T14:50:39.135Z,3.40
2023-05-11T14:54:39.430Z,2.77
2023-05-11T14:58:41.871Z,3.47
2023-05-11T15:02:42.798Z,3.40
2023-05-11T15:06:46.844Z,3.70
2023-05-11T15:10:47.137Z,3.70
2023-05-11T15:14:47.255Z,3.33
2023-05-11T15:18:49.982Z,4.67
2023-05-11T15:22:53.048Z,4.50
2023-05-11T15:26:53.298Z,4.20
2023-05-11T15:30:53.556Z,6.13
2023-05-11T15:34:59.689Z,3.30
2023-05-11T15:39:03.081Z,3.30
2023-05-11T15:43:03.450Z,4.27
2023-05-11T15:47:04.347Z,4.57
2023-05-11T15:51:05.084Z,5.33
2023-05-11T15:55:08.974Z,4.70
2023-05-11T15:59:09.412Z,4.80
2023-05-11T16:03:09.945Z,5.50
2023-05-11T16:07:10.385Z,5.17
2023-05-11T16:11:13.272Z,5.47
2023-05-11T16:15:14.323Z,5.03
2023-05-11T16:19:14.935Z,5.10
2023-05-11T16:23:15.652Z,4.63
2023-05-11T16:27:18.609Z,4.90
2023-05-11T16:31:18.910Z,5.07
2023-05-11T16:35:19.300Z,5.00
2023-05-11T16:39:19.578Z,4.83
2023-05-11T16:43:22.345Z,5.13
2023-05-11T16:47:22.774Z,5.03
2023-05-11T16:51:23.062Z,5.10
2023-05-11T16:55:23.571Z,5.03
2023-05-11T16:59:26.841Z,5.67
2023-05-11T17:03:27.174Z,6.10
2023-05-11T17:07:29.084Z,6.03
2023-05-11T17:11:29.290Z,6.70
2023-05-11T17:15:32.478Z,7.83
2023-05-11T17:19:32.799Z,7.80
2023-05-11T17:23:34.131Z,7.80
2023-05-11T17:27:35.187Z,10.80
2023-05-11T17:31:38.238Z,11.13
2023-05-11T17:35:38.804Z,18.27
2023-05-11T17:39:39.127Z,26.47
2023-05-11T17:43:39.371Z,26.63
2023-05-11T17:47:42.723Z,33.23
2023-05-11T17:51:42.947Z,11.63
2023-05-11T17:55:44.428Z,12.03
2023-05-11T17:59:44.681Z,14.87
2023-05-11T18:03:48.808Z,7.70
2023-05-11T18:07:49.528Z,8.90
2023-05-11T18:11:50.898Z,14.47
2023-05-11T18:15:51.698Z,10.37
2023-05-11T18:19:54.693Z,18.73
2023-05-11T18:23:55.007Z,25.30
2023-05-11T18:27:55.407Z,18.30
2023-05-11T18:31:56.052Z,11.43
2023-05-11T18:35:58.954Z,14.80
2023-05-11T18:39:59.170Z,13.87
2023-05-11T18:44:00.458Z,13.97
2023-05-11T18:48:00.916Z,22.67
2023-05-11T18:52:04.178Z,18.83
2023-05-11T18:56:04.421Z,10.33
2023-05-11T19:00:05.662Z,11.70
2023-05-11T19:04:07.232Z,11.13
2023-05-11T19:08:10.657Z,8.00
2023-05-11T19:12:11.891Z,7.70
2023-05-11T19:16:12.467Z,8.97
2023-05-11T19:20:13.723Z,9.50
2023-05-11T19:24:16.660Z,10.37
2023-05-11T19:28:16.912Z,11.70
2023-05-11T19:32:19.198Z,10.13
2023-05-11T19:36:19.768Z,9.50
2023-05-11T19:44:32.972Z,9.60
2023-05-11T19:48:33.544Z,10.87
2023-05-11T19:52:34.045Z,10.70
2023-05-11T19:56:37.355Z,10.17
2023-05-11T20:00:37.777Z,9.90
2023-05-11T20:04:38.143Z,8.57
2023-05-11T20:08:38.338Z,8.10
2023-05-11T20:12:42.243Z,7.83
2023-05-11T20:16:42.644Z,8.43
2023-05-11T20:20:43.043Z,8.20
2023-05-11T20:24:45.647Z,8.50
2023-05-11T20:28:48.877Z,8.53
2023-05-11T20:36:53.956Z,8.90
2023-05-11T20:41:00.126Z,8.60
2023-05-11T20:45:07.533Z,8.90
2023-05-11T20:49:08.342Z,8.70
2023-05-11T20:53:08.831Z,7.53
2023-05-11T20:57:10.099Z,7.23
2023-05-11T21:01:13.606Z,8.37
2023-05-11T21:05:14.013Z,8.47
2023-05-11T21:09:14.819Z,8.63
2023-05-11T21:13:17.874Z,8.57
2023-05-11T21:17:22.454Z,9.10
2023-05-11T21:21:30.087Z,9.23
2023-05-11T21:25:31.677Z,9.97
2023-05-11T21:29:37.833Z,9.97
2023-05-11T21:33:42.001Z,9.00
2023-05-11T21:37:45.764Z,8.67
2023-05-11T21:41:48.286Z,8.23
2023-05-11T21:45:50.813Z,9.43
2023-05-11T21:49:54.735Z,8.83
2023-05-11T21:53:56.815Z,9.17
2023-05-11T21:57:58.829Z,9.20
2023-05-11T22:02:00.455Z,9.30
2023-05-11T22:06:05.340Z,8.90
2023-05-11T22:10:05.882Z,9.70
2023-05-11T22:14:06.606Z,9.67
2023-05-11T22:18:07.094Z,9.67
2023-05-11T22:22:10.268Z,9.03
2023-05-11T22:26:10.625Z,9.57
2023-05-11T22:30:12.993Z,8.43
2023-05-11T22:34:13.287Z,9.10
2023-05-11T22:38:16.445Z,9.30
2023-05-11T22:42:16.642Z,9.10
2023-05-11T22:46:17.488Z,9.27
2023-05-11T22:50:18.232Z,9.03
2023-05-11T22:54:21.429Z,9.30
2023-05-11T22:58:22.819Z,8.83
2023-05-11T23:02:23.205Z,9.10
2023-05-11T23:06:23.759Z,8.60
2023-05-11T23:10:27.508Z,7.93
2023-05-11T23:14:27.792Z,8.13
2023-05-11T23:18:28.347Z,9.53
2023-05-11T23:22:29.065Z,9.80
2023-05-11T23:26:31.887Z,9.93
2023-05-11T23:30:32.290Z,9.83
2023-05-11T23:34:33.411Z,9.70
2023-05-11T23:38:38.395Z,9.53
2023-05-11T23:42:41.525Z,9.33
2023-05-11T23:46:41.885Z,9.77
2023-05-11T23:50:42.086Z,8.57
2023-05-11T23:54:42.788Z,9.17
2023-05-11T23:58:46.279Z,9.37
